Latest Weather Observations for Edinburgh

IDS60901

Issued at 8:51 pm CDT Sunday 7 February 2016 (issued every 10 minutes, with the page automatically refreshed every 10 minutes)

About weather observations | Map of Adelaide area stations | Latest observations for Adelaide area | Other Formats
Station Details ID: 023083 Name: EDINBURGH RAAF Lat: -34.71 Lon: 138.62 Height: 16.54 m
Data from the previous 72 hours. | See also: Recent months at Edinburgh
Date/Time
CDT
Tmp

°C
App
Tmp
°C
Dew
Point
°C
Rel
Hum
%
Delta-T

°C
Wind Press
QNH
hPa
Press
MSL
hPa
Rain
since
9 am
mm
Dir
 
Spd
km/h
Gust
km/h
Spd
kts
Gust
kts
07/08:30pm 24.0 23.3 16.3 62 4.7 SW 15 19 8 10 1017.6 1017.5 0.0
07/08:00pm 25.3 23.5 15.6 55 5.9 SW 19 22 10 12 1017.3 1017.2 0.0
07/07:30pm 26.1 23.2 15.2 51 6.6 SW 24 28 13 15 1016.9 1016.8 0.0
07/07:00pm 26.9 23.7 15.3 49 7.0 SW 26 33 14 18 1016.7 1016.6 0.0
07/06:30pm 27.5 23.4 14.8 45 7.7 SW 30 35 16 19 1016.4 1016.3 0.0
07/06:00pm 28.2 24.2 15.1 44 8.0 SW 30 35 16 19 1016.3 1016.2 0.0
07/05:30pm 28.7 24.7 15.2 43 8.2 SW 30 35 16 19 1016.2 1016.1 0.0
07/05:00pm 29.6 25.8 14.6 40 9.1 SW 28 35 15 19 1016.0 1015.9 0.0
07/04:30pm 29.6 26.0 14.2 39 9.3 SW 26 35 14 19 1016.1 1016.0 0.0
07/04:00pm 29.4 25.9 14.4 40 9.1 SW 26 32 14 17 1016.3 1016.2 0.0
07/03:30pm 29.1 25.6 14.5 41 8.8 SW 26 33 14 18 1016.4 1016.3 0.0
07/03:00pm 29.8 26.8 15.9 43 8.6 SW 26 32 14 17 1016.5 1016.4 0.0
07/02:30pm 29.6 26.7 15.0 41 8.9 SW 24 28 13 15 1016.7 1016.6 0.0
07/02:00pm 29.2 26.4 15.3 42 8.5 WSW 24 33 13 18 1017.0 1016.9 0.0
07/01:30pm 28.8 26.6 15.0 43 8.4 SW 20 28 11 15 1017.2 1017.1 0.0
07/01:00pm 27.8 25.5 13.0 40 8.7 WSW 17 22 9 12 1017.3 1017.2 0.0
07/12:30pm 27.8 25.6 12.2 38 9.0 WSW 15 22 8 12 1017.4 1017.3 0.0
07/12:00pm 26.9 25.0 12.9 42 8.2 W 15 22 8 12 1017.5 1017.4 0.0
07/11:30am 25.7 24.6 13.2 46 7.3 SW 11 17 6 9 1017.7 1017.6 0.0
07/11:00am 25.0 24.2 15.0 53 6.0 W 13 19 7 10 1017.8 1017.7 0.0
07/10:30am 24.7 24.2 14.8 54 5.9 W 11 22 6 12 1017.8 1017.7 0.0
07/10:00am 23.9 23.4 15.9 61 4.8 WNW 13 19 7 10 1017.8 1017.7 0.0
07/09:30am 23.1 23.6 14.9 60 4.9 NNW 6 11 3 6 1017.7 1017.6 0.0
07/09:00am 22.1 22.5 15.2 65 4.1 NNE 7 11 4 6 1017.5 1017.4 0.0
07/08:30am 20.9 21.2 15.0 69 3.5 NE 7 9 4 5 1017.5 1017.4 0.0
07/08:00am 21.0 22.4 15.5 71 3.3 E 2 7 1 4 1017.3 1017.2 0.0
07/07:30am 18.4 20.2 15.5 83 1.7 CALM 0 0 0 0 1017.0 1016.9 0.0
07/07:00am 17.5 19.1 14.8 84 1.6 CALM 0 0 0 0 1016.7 1016.6 0.0
07/06:30am 17.3 17.5 14.6 84 1.6 SE 7 9 4 5 1016.7 1016.6 0.0
07/06:00am 16.9 17.4 14.9 88 1.2 SSW 6 7 3 4 1016.4 1016.3 0.0
07/05:30am 16.1 15.6 13.8 86 1.3 W 9 11 5 6 1015.7 1015.6 0.0
07/05:00am 17.0 16.8 13.5 80 2.0 N 7 9 4 5 1015.1 1015.0 0.0
07/04:30am 16.8 16.6 13.7 82 1.8 N 7 9 4 5 1015.0 1014.9 0.0
07/04:00am 18.0 19.2 14.9 82 1.8 ENE 2 7 1 4 1015.0 1014.9 0.0
07/03:30am 18.3 18.2 15.9 86 1.4 NE 11 13 6 7 1015.0 1014.9 0.0
07/03:00am 18.7 17.9 16.1 85 1.5 ENE 15 19 8 10 1015.0 1014.9 0.0
07/02:30am 19.1 20.0 16.5 85 1.6 ENE 7 9 4 5 1015.1 1015.0 0.0
07/02:00am 19.2 20.7 16.6 85 1.6 NNE 4 7 2 4 1015.3 1015.2 0.0
07/01:30am 19.2 20.1 16.2 83 1.8 N 6 9 3 5 1015.5 1015.4 0.0
07/01:00am 19.7 20.3 16.7 83 1.8 NNE 9 11 5 6 1015.3 1015.2 0.0
07/12:30am 19.8 20.3 16.6 82 1.9 NNW 9 11 5 6 1015.2 1015.1 0.0
07/12:00am 21.0 23.3 16.8 77 2.6 CALM 0 0 0 0 1015.2 1015.1 0.0
 
Date/Time
CDT
Tmp

°C
App
Tmp
°C
Dew
Point
°C
Rel
Hum
%
Delta-T

°C
Wind Press
QNH
hPa
Press
MSL
hPa
Rain
since
9 am
mm
Dir
 
Spd
km/h
Gust
km/h
Spd
kts
Gust
kts
06/11:30pm 21.5 21.8 17.1 76 2.7 SW 11 15 6 8 1015.2 1015.1 0.0
06/11:00pm 22.1 22.4 17.0 73 3.1 SW 11 15 6 8 1015.2 1015.1 0.0
06/10:30pm 22.6 22.2 17.1 71 3.4 SW 15 17 8 9 1014.8 1014.7 0.0
06/10:00pm 23.1 22.9 16.6 67 4.0 SSW 13 17 7 9 1014.6 1014.5 0.0
06/09:30pm 23.3 22.8 15.9 63 4.5 SW 13 15 7 8 1014.3 1014.2 0.0
06/09:00pm 24.3 23.8 16.0 60 5.0 SSW 13 17 7 9 1013.9 1013.8 0.0
06/08:30pm 24.7 24.1 16.7 61 4.9 SSW 15 22 8 12 1013.8 1013.7 0.0
06/08:00pm 26.0 24.8 17.1 58 5.5 SW 19 22 10 12 1013.4 1013.3 0.0
06/07:30pm 27.8 25.5 14.1 43 8.2 SSW 19 24 10 13 1013.1 1013.0 0.0
06/07:00pm 27.4 24.3 15.7 48 7.2 SSW 26 32 14 17 1012.8 1012.7 0.0
06/06:30pm 28.2 23.8 14.1 42 8.4 SW 30 37 16 20 1012.6 1012.5 0.0
06/06:00pm 29.2 23.9 11.3 33 10.3 SW 30 35 16 19 1012.4 1012.3 0.0
06/05:30pm 29.9 24.8 11.9 33 10.5 SW 30 35 16 19 1012.3 1012.2 0.0
06/05:00pm 30.6 26.0 11.1 30 11.3 SSW 26 33 14 18 1012.3 1012.2 0.0
06/04:30pm 30.1 24.8 11.1 31 10.9 SW 30 37 16 20 1012.4 1012.3 0.0
06/04:00pm 30.3 25.3 12.2 33 10.6 SW 30 35 16 19 1012.6 1012.5 0.0
06/03:30pm 30.8 25.9 12.7 33 10.7 SW 30 35 16 19 1012.9 1012.8 0.0
06/03:00pm 30.5 25.2 12.4 33 10.7 SW 32 37 17 20 1013.0 1012.9 0.0
06/02:30pm 32.2 25.8 8.4 23 13.3 WSW 32 37 17 20 1013.1 1013.0 0.0
06/02:00pm 32.7 28.1 8.2 22 13.6 WSW 22 30 12 16 1013.3 1013.2 0.0
06/01:30pm 32.3 29.6 10.4 26 12.6 WSW 15 22 8 12 1013.6 1013.5 0.0
06/01:00pm 31.1 28.9 13.4 34 10.6 WSW 17 22 9 12 1014.0 1013.9 0.0
06/12:30pm 31.8 29.5 10.5 27 12.2 WSW 13 19 7 10 1014.4 1014.3 0.0
06/12:00pm 30.8 29.3 9.1 26 12.1 WNW 7 17 4 9 1014.7 1014.6 0.0
06/11:30am 29.3 28.3 10.4 31 10.7 SW 6 9 3 5 1015.1 1015.0 0.0
06/11:00am 27.4 26.8 11.8 38 9.0 WSW 6 9 3 5 1015.3 1015.2 0.0
06/10:30am 26.1 25.6 12.2 42 8.0 E 6 9 3 5 1015.5 1015.4 0.0
06/10:00am 24.3 24.1 12.9 49 6.6 NW 6 9 3 5 1015.7 1015.6 0.0
06/09:30am 22.8 22.8 12.4 52 5.9 NW 4 7 2 4 1015.6 1015.5 0.0
06/09:00am 21.4 20.9 12.8 58 4.9 NNE 7 11 4 6 1015.5 1015.4 0.0
06/08:30am 20.0 19.2 13.0 64 4.0 NNE 9 13 5 7 1015.4 1015.3 0.0
06/08:00am 18.5 17.7 12.9 70 3.1 NNE 9 11 5 6 1015.2 1015.1 0.0
06/07:30am 16.4 15.9 12.8 79 2.0 NNE 7 9 4 5 1014.8 1014.7 0.0
06/07:00am 15.9 14.2 12.5 80 1.9 ENE 13 15 7 8 1014.4 1014.3 0.0
06/06:30am 14.9 13.5 12.2 84 1.5 NE 11 15 6 8 1014.2 1014.1 0.0
06/06:00am 15.2 14.3 12.5 84 1.5 NNE 9 11 5 6 1014.0 1013.9 0.0
06/05:30am 15.8 14.9 12.5 81 1.8 NE 9 11 5 6 1013.7 1013.6 0.0
06/05:00am 15.5 14.6 12.6 83 1.6 NE 9 11 5 6 1013.7 1013.6 0.0
06/04:30am 15.8 15.0 12.9 83 1.6 NE 9 9 5 5 1013.9 1013.8 0.0
06/04:00am 16.2 17.1 12.9 81 1.8 CALM 0 7 0 4 1013.9 1013.8 0.0
06/03:30am 16.1 17.0 13.0 82 1.7 CALM 0 0 0 0 1014.1 1014.0 0.0
06/03:00am 16.1 15.3 13.0 82 1.7 NW 9 11 5 6 1014.3 1014.2 0.0
06/02:30am 16.7 16.2 12.8 78 2.2 NW 7 9 4 5 1014.6 1014.5 0.0
06/02:00am 16.8 16.5 12.7 77 2.3 N 6 7 3 4 1014.9 1014.8 0.0
06/01:30am 17.2 16.8 12.9 76 2.4 WNW 7 9 4 5 1014.9 1014.8 0.0
06/01:00am 17.6 16.7 12.7 73 2.7 W 9 9 5 5 1015.0 1014.9 0.0
06/12:30am 19.4 20.0 11.9 62 4.2 CALM 0 0 0 0 1015.1 1015.0 0.0
06/12:00am 20.4 19.8 11.6 57 4.9 SSE 6 7 3 4 1015.3 1015.2 0.0
 
Date/Time
CDT
Tmp

°C
App
Tmp
°C
Dew
Point
°C
Rel
Hum
%
Delta-T

°C
Wind Press
QNH
hPa
Press
MSL
hPa
Rain
since
9 am
mm
Dir
 
Spd
km/h
Gust
km/h
Spd
kts
Gust
kts
05/11:30pm 20.6 20.0 11.8 57 4.9 SSE 6 7 3 4 1015.5 1015.4 0.0
05/11:00pm 20.8 19.9 11.4 55 5.2 S 7 9 4 5 1015.6 1015.5 0.0
05/10:30pm 21.2 20.4 11.8 55 5.2 S 7 11 4 6 1015.6 1015.5 0.0
05/10:00pm 21.9 20.5 12.2 54 5.5 S 11 15 6 8 1015.4 1015.3 0.0
05/09:30pm 22.7 21.3 12.3 52 5.9 SSW 11 13 6 7 1015.2 1015.1 0.0
05/09:00pm 23.7 21.9 12.0 48 6.6 SSE 13 19 7 10 1014.9 1014.8 0.0
05/08:30pm 25.0 23.6 12.2 44 7.3 SSE 11 15 6 8 1014.7 1014.6 0.0
05/08:00pm 26.7 24.5 12.0 40 8.5 SE 15 19 8 10 1014.3 1014.2 0.0
05/07:30pm 27.3 24.0 11.7 37 9.0 SE 20 32 11 17 1013.8 1013.7 0.0
05/07:00pm 26.7 23.8 15.1 49 7.0 SW 24 28 13 15 1013.3 1013.2 0.0
05/06:30pm 26.6 23.2 14.7 48 7.2 SW 26 33 14 18 1013.4 1013.3 0.0
05/06:00pm 26.7 22.9 14.8 48 7.2 SW 28 35 15 19 1013.5 1013.4 0.0
05/05:30pm 26.9 22.9 14.0 45 7.7 SW 28 33 15 18 1013.7 1013.6 0.0
05/05:00pm 26.9 22.6 14.3 46 7.5 SW 30 35 16 19 1013.8 1013.7 0.0
05/04:30pm 26.2 21.4 14.0 47 7.2 SW 32 37 17 20 1014.2 1014.1 0.0
05/04:00pm 25.7 21.0 13.2 46 7.3 WSW 30 37 16 20 1014.5 1014.4 0.0
05/03:30pm 25.1 20.7 13.0 47 7.0 WSW 28 35 15 19 1015.1 1015.0 0.0
05/03:00pm 24.9 20.6 13.1 48 6.9 WSW 28 35 15 19 1015.6 1015.5 0.0
05/02:30pm 24.4 20.2 12.4 47 6.9 WSW 26 35 14 19 1016.0 1015.9 0.0
05/02:00pm 25.3 20.8 11.5 42 7.8 WSW 26 35 14 19 1016.3 1016.2 0.0
05/01:30pm 24.9 21.0 10.8 41 7.9 SW 22 30 12 16 1016.7 1016.6 0.0
05/01:00pm 24.0 21.1 9.6 40 7.8 SW 15 24 8 13 1017.1 1017.0 0.0
05/12:30pm 23.5 20.9 9.5 41 7.6 SSE 13 22 7 12 1017.6 1017.5 0.0
05/12:00pm 22.6 20.9 9.7 44 7.0 SSE 9 24 5 13 1017.9 1017.8 0.0
05/11:30am 21.8 19.5 9.0 44 6.8 SSE 11 19 6 10 1018.3 1018.2 0.0
05/11:00am 21.0 17.9 10.2 50 5.9 SSE 17 20 9 11 1018.7 1018.6 0.0
05/10:30am 20.1 17.7 10.2 53 5.3 SE 13 19 7 10 1019.0 1018.9 0.0
05/10:00am 18.2 16.2 10.1 59 4.3 S 11 17 6 9 1019.3 1019.2 0.0
05/09:30am 17.4 14.2 9.8 61 4.0 SSE 17 22 9 12 1019.6 1019.5 0.0
05/09:00am 17.1 14.7 10.0 63 3.7 SSE 13 22 7 12 1019.5 1019.4 0.0
05/08:30am 16.2 13.4 10.1 67 3.2 SSE 15 24 8 13 1019.4 1019.3 0.0
05/08:00am 15.7 13.3 10.2 70 2.9 SSE 13 20 7 11 1019.3 1019.2 0.0
05/07:30am 14.8 12.3 9.8 72 2.6 SSE 13 19 7 10 1019.3 1019.2 0.0
05/07:00am 14.2 12.1 9.8 75 2.3 SSE 11 17 6 9 1018.9 1018.8 0.0
05/06:30am 14.3 11.8 9.7 74 2.4 SE 13 19 7 10 1018.6 1018.5 0.0
05/06:00am 14.7 12.3 10.1 74 2.4 SE 13 19 7 10 1018.3 1018.2 0.0
05/05:30am 15.0 13.3 10.0 72 2.6 SSE 9 15 5 8 1018.1 1018.0 0.0
05/05:00am 15.1 13.7 10.9 76 2.2 S 9 13 5 7 1017.9 1017.8 0.0
05/04:30am 15.1 14.1 10.9 76 2.2 S 7 9 4 5 1017.6 1017.5 0.0
05/04:00am 15.2 14.5 11.4 78 2.0 S 6 7 3 4 1017.5 1017.4 0.0
05/03:30am 15.3 15.0 11.5 78 2.0 SE 4 6 2 3 1017.3 1017.2 0.0
05/03:00am 15.4 14.6 11.6 78 2.0 S 7 11 4 6 1017.4 1017.3 0.0
05/02:30am 15.4 14.6 11.6 78 2.0 SSW 7 9 4 5 1017.5 1017.4 0.0
05/02:00am 14.9 14.0 11.5 80 1.8 SSW 7 9 4 5 1017.7 1017.6 0.0
05/01:30am 15.7 14.5 11.7 77 2.2 SSW 9 11 5 6 1018.0 1017.9 0.0
05/01:00am 16.1 14.5 11.7 75 2.4 SSW 11 15 6 8 1018.3 1018.2 0.0
05/12:30am 16.2 14.7 12.0 76 2.3 SSW 11 13 6 7 1018.3 1018.2 0.0
05/12:00am 16.5 15.4 11.9 74 2.5 SSW 9 11 5 6 1018.4 1018.3 0.0
 
Date/Time
CDT
Tmp

°C
App
Tmp
°C
Dew
Point
°C
Rel
Hum
%
Delta-T

°C
Wind Press
QNH
hPa
Press
MSL
hPa
Rain
since
9 am
mm
Dir
 
Spd
km/h
Gust
km/h
Spd
kts
Gust
kts
04/11:30pm 17.1 14.8 11.8 71 2.9 S 15 20 8 11 1018.4 1018.3 0.0
04/11:00pm 17.3 14.6 11.6 69 3.1 S 17 22 9 12 1018.7 1018.6 0.0
04/10:30pm 17.6 15.2 11.4 67 3.4 S 15 20 8 11 1018.9 1018.8 0.0
04/10:00pm 18.1 15.7 11.4 65 3.7 S 15 20 8 11 1018.9 1018.8 0.0
04/09:30pm 18.7 16.2 11.0 61 4.2 S 15 22 8 12 1018.5 1018.4 0.0
04/09:00pm 19.3 15.9 11.3 60 4.4 S 20 26 11 14 1018.3 1018.2 0.0

Latest Capital City Observations: Canberra | Sydney | Melbourne | Brisbane | Adelaide | Perth | Hobart | Darwin

Other Formats:

Comma delimited format used in spreadsheet applications
http://www.bom.gov.au/fwo/IDS60901/IDS60901.95676.axf

JavaScript Object Notation format (JSON) in row-major order
http://www.bom.gov.au/fwo/IDS60901/IDS60901.95676.json